Delhi, LA (71232)

7:25 AM CDT on September 21, 2014 (GMT -0500)
KLARAYVI2 | Change Station
CLOSE
Current Station
Personal Weather Station
Location: Rayville, LA
Elevation: 92 ft
Nearby Weather Stations

Elev 92 ft 32.49 °N, 91.80 °W | Updated 3 seconds ago

Partly Cloudy
Partly Cloudy
68.9 °F
Feels Like 68.9 °F
N
0.0
Wind Variable Wind from North
Gusts 0.0 mph

Today
High -- | Low -- °F
--% Chance of Precip.
Yesterday
High -- | Low -- °F
Precip. -- in
6:53 AM 7:04 PM
Waning Crescent, 7% visible
Pressure 30.06 in
Visibility 10.0 miles
Clouds Clear
Dew Point 69 °F
Humidity 99%
Rainfall 0.00 in
Snow Depth Not available.
UV 0 out of 12
Pollen 10.50 out of 12
Air Quality Not available.
Flu Activity Not available.
METAR KTVR 211153Z AUTO 00000KT 10SM CLR 19/18 A3004 RMK AO2 SLP177 T01890178 10206 20183 53013 TSNO

More Conditions Fewer Conditions

Pressure 30.06 in
Visibility 10.0 miles
Clouds Clear
Dew Point 69 °F
Humidity 99%
Rainfall 0.00 in
Snow Depth Not available.
UV 0 out of 12
Pollen 10.50 out of 12
Air Quality Not available.
Flu Activity Not available.
METAR KTVR 211153Z AUTO 00000KT 10SM CLR 19/18 A3004 RMK AO2 SLP177 T01890178 10206 20183 53013 TSNO

More Conditions Fewer Conditions

10-Day Weather Forecast

Almanac

Astronomy

Sep. 21, 2014 Rise Set
Actual Time 6:53 AM CDT 7:04 PM CDT
Civil Twilight 6:29 AM CDT 7:28 PM CDT
Nautical Twilight 6:00 AM CDT 7:57 PM CDT
Astronomical Twilight 5:31 AM CDT 8:26 PM CDT
Moon 4:34 AM CDT 5:35 PM CDT
Length of Visible Light 12h 59m
Length of Day
12h 10m
Tomorrow will be 1m 58s shorter.
Waning Crescent, 7% of the Moon is Illuminated
Today
Waning Crescent
Sep 24
New
Oct 1
First Quarter
Oct 8
Full
Oct 15
Last Quarter

Today's Extremes

State Highs State Lows

Community

WunderPhotos

Upload Photos

1,755,126 photos uploaded!

Nearby

Snow Depth

Station Depth Elevation
No new snow has been reported.

Earthquake Activity

City Distance Mag. Time & Date
No recent earthquake activity has been reported nearby.
Minimum magnitude displayed is 2.5.

Coastal Water Temperatures

Place Temperature
No Stations Reporting

Nearby Weather Stations